createdAt,value
2022-10-25T00:00:15.902Z,0.50
2022-10-25T00:02:42.701Z,0.40
2022-10-25T00:05:14.465Z,0.50
2022-10-25T00:07:41.469Z,0.40
2022-10-25T00:10:08.458Z,0.20
2022-10-25T00:12:41.624Z,0.40
2022-10-25T00:15:09.005Z,0.47
2022-10-25T00:17:35.701Z,0.30
2022-10-25T00:20:02.439Z,0.50
2022-10-25T00:22:29.241Z,0.28
2022-10-25T00:24:55.928Z,0.30
2022-10-25T00:27:22.608Z,0.30
2022-10-25T00:29:49.283Z,0.22
2022-10-25T00:32:15.887Z,0.20
2022-10-25T00:34:42.559Z,0.90
2022-10-25T00:37:09.325Z,0.30
2022-10-25T00:39:35.946Z,0.20
2022-10-25T00:42:02.891Z,0.20
2022-10-25T00:44:38.568Z,0.15
2022-10-25T00:47:25.449Z,0.20
2022-10-25T00:50:11.023Z,0.30
2022-10-25T00:52:40.454Z,0.30
2022-10-25T00:55:09.849Z,0.30
2022-10-25T00:57:47.164Z,0.30
2022-10-25T01:00:14.287Z,0.25
2022-10-25T01:02:41.131Z,0.30
2022-10-25T01:05:09.707Z,0.43
2022-10-25T01:07:37.252Z,0.30
2022-10-25T01:10:04.762Z,0.30
2022-10-25T01:12:31.427Z,0.22
2022-10-25T01:14:58.411Z,0.25
2022-10-25T01:17:37.506Z,0.20
2022-10-25T01:20:16.652Z,0.20
2022-10-25T01:22:58.176Z,0.80
2022-10-25T01:26:01.966Z,1.38
2022-10-25T01:29:08.995Z,2.40
2022-10-25T01:31:48.545Z,1.13
2022-10-25T01:34:28.537Z,0.98
2022-10-25T01:37:18.032Z,0.50
2022-10-25T01:39:53.404Z,0.20
2022-10-25T01:42:32.441Z,0.43
2022-10-25T01:45:10.906Z,0.20
2022-10-25T01:48:01.029Z,0.50
2022-10-25T01:50:34.828Z,0.40
2022-10-25T01:53:01.718Z,0.25
2022-10-25T01:55:39.155Z,0.20
2022-10-25T01:58:05.780Z,0.40
2022-10-25T02:00:41.968Z,0.20
2022-10-25T02:03:18.759Z,0.30
2022-10-25T02:06:16.860Z,0.20
2022-10-25T02:09:09.420Z,0.40
2022-10-25T02:11:36.766Z,0.40
2022-10-25T02:14:24.212Z,0.30
2022-10-25T02:16:53.197Z,0.35
2022-10-25T02:19:27.538Z,0.30
2022-10-25T02:21:56.854Z,0.30
2022-10-25T02:24:26.463Z,0.25
2022-10-25T02:26:54.338Z,0.30
2022-10-25T02:29:22.743Z,0.30
2022-10-25T02:31:49.548Z,0.50
2022-10-25T02:34:17.267Z,0.40
2022-10-25T02:36:48.424Z,0.25
2022-10-25T02:39:16.861Z,0.40
2022-10-25T02:42:39.850Z,0.60
2022-10-25T02:45:44.206Z,0.50
2022-10-25T02:48:10.857Z,0.40
2022-10-25T02:50:37.441Z,0.40
2022-10-25T02:53:04.041Z,0.60
2022-10-25T02:55:30.675Z,0.40
2022-10-25T02:57:58.642Z,0.40
2022-10-25T03:00:25.335Z,0.47
2022-10-25T03:02:52.048Z,0.50
2022-10-25T03:05:18.725Z,0.40
2022-10-25T03:07:45.353Z,0.40
2022-10-25T03:10:11.967Z,0.40
2022-10-25T03:12:38.594Z,0.30
2022-10-25T03:15:05.878Z,0.52
2022-10-25T03:17:32.564Z,0.40
2022-10-25T03:19:59.278Z,0.30
2022-10-25T03:22:26.022Z,0.40
2022-10-25T03:24:52.626Z,0.50
2022-10-25T03:27:19.266Z,0.35
2022-10-25T03:29:45.922Z,0.40
2022-10-25T03:32:12.568Z,0.50
2022-10-25T03:34:39.183Z,0.40
2022-10-25T03:37:05.983Z,0.47
2022-10-25T03:39:32.579Z,0.70
2022-10-25T03:41:59.257Z,1.10
2022-10-25T03:44:25.883Z,0.88
2022-10-25T03:46:52.635Z,0.88
2022-10-25T03:49:29.898Z,0.80
2022-10-25T03:52:00.033Z,0.80
2022-10-25T03:54:29.574Z,0.40
2022-10-25T03:56:56.316Z,0.70
2022-10-25T03:59:22.994Z,0.50
2022-10-25T04:01:49.744Z,0.65
2022-10-25T04:04:16.461Z,0.60
2022-10-25T04:06:43.433Z,0.93
2022-10-25T04:09:10.224Z,0.52
2022-10-25T04:11:36.864Z,0.73
2022-10-25T04:14:03.513Z,0.55
2022-10-25T04:16:30.395Z,0.47
2022-10-25T04:18:59.012Z,0.50
2022-10-25T04:21:25.795Z,0.40
2022-10-25T04:23:52.883Z,0.80
2022-10-25T04:26:22.972Z,0.70
2022-10-25T04:28:51.951Z,0.40
2022-10-25T04:31:18.653Z,0.40
2022-10-25T04:33:49.010Z,0.52
2022-10-25T04:36:16.138Z,0.43
2022-10-25T04:38:42.857Z,0.70
2022-10-25T04:41:10.213Z,0.50
2022-10-25T04:43:36.856Z,0.50
2022-10-25T04:46:03.912Z,0.60
2022-10-25T04:48:30.670Z,0.52
2022-10-25T04:51:00.673Z,0.50
2022-10-25T04:53:27.606Z,0.73
2022-10-25T04:56:06.497Z,0.50
2022-10-25T04:58:34.086Z,0.60
2022-10-25T05:01:04.279Z,0.57
2022-10-25T05:03:31.773Z,3.80
2022-10-25T05:06:26.731Z,1.60
2022-10-25T05:08:54.349Z,1.20
2022-10-25T05:11:24.223Z,0.98
2022-10-25T05:13:51.036Z,1.10
2022-10-25T05:16:23.294Z,0.88
2022-10-25T05:18:51.779Z,1.13
2022-10-25T05:21:18.666Z,0.90
2022-10-25T05:23:45.908Z,0.60
2022-10-25T05:26:18.901Z,0.80
2022-10-25T05:28:47.678Z,1.10
2022-10-25T05:31:18.377Z,0.60
2022-10-25T05:33:45.895Z,0.55
2022-10-25T05:36:14.075Z,0.70
2022-10-25T05:38:41.261Z,0.65
2022-10-25T05:41:09.879Z,0.52
2022-10-25T05:43:36.552Z,0.57
2022-10-25T05:46:06.303Z,0.50
2022-10-25T05:48:34.637Z,0.85
2022-10-25T05:51:28.820Z,0.60
2022-10-25T05:54:00.730Z,0.80
2022-10-25T05:56:29.482Z,0.50
2022-10-25T05:58:57.174Z,0.60
2022-10-25T06:01:26.615Z,1.00
2022-10-25T06:03:55.499Z,0.55
2022-10-25T06:06:22.965Z,0.45
2022-10-25T06:08:50.178Z,0.50
2022-10-25T06:11:19.506Z,0.40
2022-10-25T06:13:46.532Z,0.60
2022-10-25T06:16:16.314Z,0.40
2022-10-25T06:18:43.751Z,0.60
2022-10-25T06:21:12.414Z,1.25
2022-10-25T06:23:40.059Z,0.80
2022-10-25T06:26:09.368Z,0.60
2022-10-25T06:28:36.594Z,0.60
2022-10-25T06:31:08.785Z,0.60
2022-10-25T06:33:35.953Z,0.55
2022-10-25T06:36:04.594Z,0.50
2022-10-25T06:38:31.674Z,0.55
2022-10-25T06:40:59.909Z,3.75
2022-10-25T06:43:27.398Z,0.80
2022-10-25T06:45:54.557Z,0.65
2022-10-25T06:48:21.757Z,0.80
2022-10-25T06:50:52.072Z,0.65
2022-10-25T06:53:18.957Z,0.60
2022-10-25T06:55:47.093Z,0.70
2022-10-25T06:58:13.741Z,0.65
2022-10-25T07:00:40.380Z,0.77
2022-10-25T07:03:06.965Z,0.80
2022-10-25T07:05:33.685Z,0.68
2022-10-25T07:08:00.384Z,0.45
2022-10-25T07:10:27.061Z,0.68
2022-10-25T07:12:53.735Z,0.70
2022-10-25T07:17:54.750Z,0.70
2022-10-25T07:20:21.452Z,0.73
2022-10-25T07:22:50.157Z,0.50
2022-10-25T07:25:16.936Z,0.65
2022-10-25T07:27:43.672Z,1.15
2022-10-25T07:30:10.993Z,0.70
2022-10-25T07:32:41.574Z,0.70
2022-10-25T07:35:09.392Z,0.63
2022-10-25T07:37:36.053Z,0.52
2022-10-25T07:40:02.802Z,0.60
2022-10-25T07:42:29.512Z,0.50
2022-10-25T07:44:56.238Z,0.82
2022-10-25T07:47:22.906Z,0.98
2022-10-25T07:49:49.592Z,0.73
2022-10-25T07:52:16.315Z,0.85
2022-10-25T07:57:11.247Z,0.57
2022-10-25T07:59:37.971Z,0.68
2022-10-25T08:02:04.692Z,0.60
2022-10-25T08:04:32.980Z,0.60
2022-10-25T08:07:01.281Z,0.50
2022-10-25T08:09:38.284Z,0.57
2022-10-25T08:12:05.509Z,0.50
2022-10-25T08:14:33.913Z,0.40
2022-10-25T08:17:03.177Z,0.80
2022-10-25T08:19:29.845Z,0.95
2022-10-25T08:21:56.503Z,0.50
2022-10-25T08:24:23.195Z,0.50
2022-10-25T08:26:49.951Z,0.98
2022-10-25T08:29:16.650Z,0.57
2022-10-25T08:31:43.351Z,0.77
2022-10-25T08:36:37.731Z,0.68
2022-10-25T08:39:04.491Z,0.52
2022-10-25T08:41:51.144Z,0.65
2022-10-25T08:44:29.796Z,0.57
2022-10-25T08:47:13.355Z,0.50
2022-10-25T08:49:49.576Z,0.70
2022-10-25T08:52:26.211Z,0.73
2022-10-25T08:54:53.429Z,0.70
2022-10-25T08:57:25.840Z,0.80
2022-10-25T08:59:58.844Z,1.15
2022-10-25T09:02:36.387Z,0.75
2022-10-25T09:05:03.868Z,0.57
2022-10-25T09:07:42.974Z,0.80
2022-10-25T09:10:15.467Z,0.50
2022-10-25T09:12:50.413Z,0.52
2022-10-25T09:15:59.253Z,0.80
2022-10-25T09:18:43.124Z,0.55
2022-10-25T09:21:22.181Z,0.75
2022-10-25T09:24:18.596Z,0.45
2022-10-25T09:27:07.454Z,0.70
2022-10-25T09:29:39.014Z,0.88
2022-10-25T09:32:21.724Z,0.77
2022-10-25T09:34:48.788Z,0.32
2022-10-25T09:37:28.135Z,0.70
2022-10-25T09:40:06.621Z,0.90
2022-10-25T09:42:39.452Z,0.65
2022-10-25T09:45:25.606Z,0.57
2022-10-25T09:48:13.336Z,0.77
2022-10-25T09:50:47.617Z,0.45
2022-10-25T09:53:18.946Z,0.90
2022-10-25T09:55:56.531Z,0.57
2022-10-25T09:58:28.530Z,0.80
2022-10-25T10:00:58.873Z,0.60
2022-10-25T10:03:31.928Z,0.50
2022-10-25T10:06:16.171Z,0.70
2022-10-25T10:08:49.440Z,0.60
2022-10-25T10:11:18.654Z,0.55
2022-10-25T10:14:11.941Z,0.70
2022-10-25T10:16:59.991Z,0.50
2022-10-25T10:19:30.023Z,0.40
2022-10-25T10:22:00.012Z,0.60
2022-10-25T10:24:33.569Z,0.47
2022-10-25T10:27:13.474Z,0.68
2022-10-25T10:30:19.135Z,0.40
2022-10-25T10:32:45.888Z,0.45
2022-10-25T10:35:36.638Z,0.70
2022-10-25T10:38:26.685Z,0.68
2022-10-25T10:41:15.082Z,0.68
2022-10-25T10:43:41.985Z,0.50
2022-10-25T10:46:15.840Z,0.55
2022-10-25T10:48:45.329Z,0.57
2022-10-25T10:51:39.057Z,0.63
2022-10-25T10:54:26.423Z,0.40
2022-10-25T10:57:01.975Z,0.47
2022-10-25T10:59:33.993Z,0.38
2022-10-25T11:02:25.190Z,0.70
2022-10-25T11:04:55.066Z,0.60
2022-10-25T11:07:42.254Z,0.52
2022-10-25T11:10:20.261Z,0.40
2022-10-25T11:13:05.160Z,0.40
2022-10-25T11:16:23.133Z,0.43
2022-10-25T11:19:16.651Z,0.57
2022-10-25T11:22:04.894Z,0.65
2022-10-25T11:24:53.193Z,0.30
2022-10-25T11:27:26.222Z,0.40
2022-10-25T11:29:55.975Z,0.50
2022-10-25T11:33:01.744Z,0.60
2022-10-25T11:36:16.188Z,0.40
2022-10-25T11:39:03.779Z,0.43
2022-10-25T11:41:51.118Z,0.50
2022-10-25T11:44:20.788Z,0.45
2022-10-25T11:47:10.839Z,0.52
2022-10-25T11:50:11.616Z,0.30
2022-10-25T11:53:05.865Z,0.68
2022-10-25T11:55:48.577Z,0.40
2022-10-25T11:58:25.156Z,0.40
2022-10-25T12:01:15.450Z,0.40
2022-10-25T12:04:06.734Z,0.30
2022-10-25T12:06:45.222Z,0.50
2022-10-25T12:09:30.173Z,0.30
2022-10-25T12:12:20.343Z,0.60
2022-10-25T12:14:54.509Z,0.45
2022-10-25T12:17:32.104Z,0.50
2022-10-25T12:20:03.216Z,0.60
2022-10-25T12:22:44.003Z,0.68
2022-10-25T12:25:33.822Z,0.40
2022-10-25T12:28:23.335Z,0.38
2022-10-25T12:30:57.549Z,0.50
2022-10-25T12:33:33.203Z,0.50
2022-10-25T12:36:04.525Z,0.30
2022-10-25T12:38:37.508Z,0.60
2022-10-25T12:41:15.515Z,0.57
2022-10-25T12:43:56.053Z,0.40
2022-10-25T12:46:42.930Z,0.40
2022-10-25T12:49:21.529Z,0.55
2022-10-25T12:52:35.353Z,0.75
2022-10-25T12:55:23.619Z,0.40
2022-10-25T12:58:08.689Z,0.30
2022-10-25T13:00:56.422Z,0.60
2022-10-25T13:03:49.938Z,0.50
2022-10-25T13:06:24.215Z,0.20
2022-10-25T13:08:51.196Z,0.52
2022-10-25T13:11:18.177Z,0.50
2022-10-25T13:13:53.668Z,0.60
2022-10-25T13:16:25.860Z,0.43
2022-10-25T13:19:25.744Z,0.50
2022-10-25T13:22:12.023Z,0.52
2022-10-25T13:24:43.814Z,0.60
2022-10-25T13:27:16.456Z,0.40
2022-10-25T13:29:45.795Z,0.50
2022-10-25T13:32:20.588Z,0.70
2022-10-25T13:34:47.643Z,0.60
2022-10-25T13:37:32.769Z,0.43
2022-10-25T13:40:25.128Z,0.50
2022-10-25T13:43:19.408Z,0.35
2022-10-25T13:45:53.259Z,0.57
2022-10-25T13:48:26.167Z,0.45
2022-10-25T13:50:55.623Z,0.47
2022-10-25T13:53:37.723Z,0.50
2022-10-25T13:56:07.932Z,0.35
2022-10-25T13:58:40.661Z,0.45
2022-10-25T14:01:16.835Z,0.30
2022-10-25T14:04:02.096Z,0.40
2022-10-25T14:06:40.825Z,0.45
2022-10-25T14:09:27.734Z,0.43
2022-10-25T14:12:11.594Z,0.32
2022-10-25T14:14:48.221Z,0.40
2022-10-25T14:17:21.698Z,0.50
2022-10-25T14:19:51.558Z,0.43
2022-10-25T14:22:22.913Z,0.68
2022-10-25T14:24:54.022Z,0.50
2022-10-25T14:27:35.922Z,0.40
2022-10-25T14:30:21.260Z,0.57
2022-10-25T14:32:50.727Z,0.43
2022-10-25T14:35:18.026Z,0.47
2022-10-25T14:37:44.946Z,0.50
2022-10-25T14:40:20.692Z,0.45
2022-10-25T14:42:47.692Z,0.60
2022-10-25T14:45:26.375Z,0.47
2022-10-25T14:47:53.418Z,0.52
2022-10-25T14:50:25.222Z,0.40
2022-10-25T14:52:52.930Z,0.32
2022-10-25T14:55:29.538Z,0.38
2022-10-25T14:57:58.849Z,0.50
2022-10-25T15:00:25.829Z,0.40
2022-10-25T15:03:03.756Z,0.30
2022-10-25T15:05:30.728Z,0.47
2022-10-25T15:08:00.109Z,0.47
2022-10-25T15:10:41.627Z,0.50
2022-10-25T15:13:21.947Z,0.38
2022-10-25T15:15:51.195Z,0.30
2022-10-25T15:18:25.152Z,0.30
2022-10-25T15:21:17.404Z,0.47
2022-10-25T15:24:08.715Z,0.60
2022-10-25T15:26:38.184Z,0.40
2022-10-25T15:29:06.270Z,0.82
2022-10-25T15:31:33.064Z,0.35
2022-10-25T15:34:05.432Z,0.43
2022-10-25T15:36:33.827Z,0.82
2022-10-25T15:39:10.530Z,0.77
2022-10-25T15:41:39.593Z,0.55
2022-10-25T15:44:06.318Z,0.90
2022-10-25T15:46:34.914Z,0.60
2022-10-25T15:49:06.655Z,0.80
2022-10-25T15:51:36.369Z,0.73
2022-10-25T15:54:03.473Z,0.65
2022-10-25T15:56:30.314Z,0.90
2022-10-25T15:58:58.742Z,1.17
2022-10-25T16:01:25.748Z,2.10
2022-10-25T16:03:53.065Z,1.27
2022-10-25T16:06:19.785Z,1.20
2022-10-25T16:08:46.509Z,0.90
2022-10-25T16:11:17.531Z,0.80
2022-10-25T16:13:47.019Z,0.70
2022-10-25T16:16:39.233Z,1.23
2022-10-25T16:19:13.881Z,7.35
2022-10-25T16:21:41.035Z,8.02
2022-10-25T16:24:07.884Z,1.90
2022-10-25T16:26:44.501Z,1.00
2022-10-25T16:29:16.790Z,0.73
2022-10-25T16:31:44.126Z,0.98
2022-10-25T16:34:11.354Z,1.08
2022-10-25T16:36:38.507Z,0.82
2022-10-25T16:39:06.324Z,0.80
2022-10-25T16:41:33.425Z,0.77
2022-10-25T16:44:00.416Z,1.10
2022-10-25T16:46:27.310Z,1.10
2022-10-25T16:48:55.951Z,1.83
2022-10-25T16:51:25.779Z,2.60
2022-10-25T16:53:52.568Z,2.30
2022-10-25T16:56:19.487Z,1.67
2022-10-25T16:58:46.266Z,1.58
2022-10-25T17:01:19.592Z,3.60
2022-10-25T17:03:53.201Z,3.72
2022-10-25T17:06:41.325Z,2.58
2022-10-25T17:09:07.942Z,2.53
2022-10-25T17:11:34.788Z,16.58
2022-10-25T17:14:01.496Z,13.43
2022-10-25T17:16:28.296Z,4.43
2022-10-25T17:18:55.209Z,4.20
2022-10-25T17:21:22.746Z,6.90
2022-10-25T17:23:49.658Z,7.65
2022-10-25T17:26:16.553Z,9.70
2022-10-25T17:28:44.545Z,11.30
2022-10-25T17:31:13.905Z,2.30
2022-10-25T17:33:42.131Z,1.80
2022-10-25T17:36:14.421Z,2.22
2022-10-25T17:38:42.316Z,2.30
2022-10-25T17:41:09.568Z,2.10
2022-10-25T17:43:38.713Z,2.90
2022-10-25T17:46:14.128Z,3.13
2022-10-25T17:48:40.895Z,3.22
2022-10-25T17:51:09.771Z,6.53
2022-10-25T17:53:36.569Z,4.30
2022-10-25T17:56:13.786Z,8.20
2022-10-25T17:58:42.239Z,6.57
2022-10-25T18:01:10.293Z,4.90
2022-10-25T18:03:39.425Z,5.70
2022-10-25T18:06:09.714Z,6.05
2022-10-25T18:08:37.047Z,4.80
2022-10-25T18:11:24.804Z,4.70
2022-10-25T18:13:56.915Z,4.03
2022-10-25T18:16:27.410Z,4.90
2022-10-25T18:18:55.895Z,4.82
2022-10-25T18:21:22.742Z,5.32
2022-10-25T18:23:49.459Z,5.18
2022-10-25T18:26:17.598Z,4.72
2022-10-25T18:28:44.359Z,4.00
2022-10-25T18:31:13.488Z,3.55
2022-10-25T18:33:42.460Z,4.38
2022-10-25T18:36:12.381Z,4.40
2022-10-25T18:38:39.036Z,4.22
2022-10-25T18:41:11.169Z,4.32
2022-10-25T18:43:37.969Z,3.28
2022-10-25T18:46:04.878Z,3.70
2022-10-25T18:48:31.800Z,3.30
2022-10-25T18:51:10.824Z,4.00
2022-10-25T18:53:41.125Z,3.38
2022-10-25T18:56:09.800Z,4.10
2022-10-25T18:58:36.602Z,3.70
2022-10-25T19:01:16.536Z,3.10
2022-10-25T19:03:44.270Z,3.05
2022-10-25T19:06:11.560Z,1.95
2022-10-25T19:08:38.739Z,2.50
2022-10-25T19:11:10.270Z,1.92
2022-10-25T19:13:37.233Z,2.03
2022-10-25T19:16:04.587Z,1.35
2022-10-25T19:18:32.473Z,1.75
2022-10-25T19:21:07.525Z,1.75
2022-10-25T19:23:34.601Z,3.83
2022-10-25T19:26:03.670Z,7.75
2022-10-25T19:28:31.200Z,5.22
2022-10-25T19:31:04.299Z,6.13
2022-10-25T19:33:31.024Z,5.45
2022-10-25T19:36:10.087Z,3.30
2022-10-25T19:38:37.645Z,3.20
2022-10-25T19:41:06.764Z,2.30
2022-10-25T19:43:34.051Z,2.15
2022-10-25T19:46:04.712Z,2.40
2022-10-25T19:48:31.995Z,2.10
2022-10-25T19:51:04.660Z,2.60
2022-10-25T19:53:31.995Z,2.15
2022-10-25T19:56:00.250Z,2.50
2022-10-25T19:58:27.245Z,2.40
2022-10-25T20:01:01.527Z,2.80
2022-10-25T20:03:28.428Z,2.58
2022-10-25T20:06:00.482Z,2.53
2022-10-25T20:08:27.588Z,2.00
2022-10-25T20:10:54.621Z,1.83
2022-10-25T20:13:21.348Z,1.63
2022-10-25T20:15:52.665Z,2.42
2022-10-25T20:18:19.923Z,2.72
2022-10-25T20:20:51.762Z,3.65
2022-10-25T20:23:20.559Z,3.50
2022-10-25T20:25:47.292Z,2.70
2022-10-25T20:28:14.196Z,3.38
2022-10-25T20:30:41.011Z,2.88
2022-10-25T20:33:08.634Z,2.85
2022-10-25T20:35:39.820Z,3.03
2022-10-25T20:38:07.210Z,3.60
2022-10-25T20:40:34.614Z,4.07
2022-10-25T20:43:01.483Z,4.57
2022-10-25T20:45:29.436Z,5.50
2022-10-25T20:47:57.735Z,4.82
2022-10-25T20:50:26.579Z,4.78
2022-10-25T20:55:40.254Z,4.82
2022-10-25T20:58:07.003Z,3.50
2022-10-25T21:00:33.734Z,2.80
2022-10-25T21:03:00.389Z,3.08
2022-10-25T21:05:27.512Z,2.88
2022-10-25T21:07:54.232Z,2.60
2022-10-25T21:10:20.919Z,2.47
2022-10-25T21:12:47.730Z,3.05
2022-10-25T21:15:14.652Z,3.30
2022-10-25T21:17:41.392Z,2.88
2022-10-25T21:20:08.703Z,2.85
2022-10-25T21:22:35.375Z,2.60
2022-10-25T21:25:02.119Z,3.13
2022-10-25T21:27:28.926Z,2.38
2022-10-25T21:29:55.740Z,2.50
2022-10-25T21:32:22.819Z,2.50
2022-10-25T21:34:49.589Z,2.45
2022-10-25T21:37:16.481Z,2.22
2022-10-25T21:39:43.562Z,2.13
2022-10-25T21:42:10.274Z,2.28
2022-10-25T21:44:37.066Z,2.00
2022-10-25T21:47:03.734Z,2.05
2022-10-25T21:49:30.752Z,1.75
2022-10-25T21:51:57.607Z,2.15
2022-10-25T21:54:25.047Z,2.10
2022-10-25T21:56:52.635Z,2.00
2022-10-25T21:59:20.035Z,3.03
2022-10-25T22:01:47.284Z,2.30
2022-10-25T22:04:16.287Z,2.35
2022-10-25T22:06:42.996Z,2.00
2022-10-25T22:09:09.820Z,2.10
2022-10-25T22:11:38.269Z,2.35
2022-10-25T22:23:13.409Z,2.75
2022-10-25T22:25:40.089Z,2.40
2022-10-25T22:28:06.778Z,1.92
2022-10-25T22:30:33.501Z,3.38
2022-10-25T22:33:00.179Z,2.05
2022-10-25T22:35:27.088Z,2.90
2022-10-25T22:37:53.761Z,2.47
2022-10-25T22:40:20.383Z,1.88
2022-10-25T22:42:47.099Z,2.47
2022-10-25T22:45:13.857Z,2.20
2022-10-25T22:47:40.544Z,2.60
2022-10-25T22:50:07.402Z,2.75
2022-10-25T22:52:34.286Z,2.10
2022-10-25T22:55:00.978Z,2.58
2022-10-25T22:57:29.512Z,2.42
2022-10-25T22:59:56.160Z,2.65
2022-10-25T23:02:22.896Z,2.60
2022-10-25T23:04:49.509Z,2.25
2022-10-25T23:07:16.228Z,2.22
2022-10-25T23:09:42.876Z,2.30
2022-10-25T23:12:09.503Z,2.10
2022-10-25T23:14:36.147Z,2.20
2022-10-25T23:17:02.804Z,2.50
2022-10-25T23:19:29.460Z,1.92
2022-10-25T23:21:56.154Z,1.80
2022-10-25T23:24:22.758Z,2.90
2022-10-25T23:26:49.485Z,3.15
2022-10-25T23:29:16.183Z,5.35
2022-10-25T23:31:42.804Z,3.90
2022-10-25T23:34:10.417Z,3.78
2022-10-25T23:36:37.773Z,3.17
2022-10-25T23:39:07.291Z,2.15
2022-10-25T23:41:34.049Z,3.05
2022-10-25T23:44:00.782Z,2.92
2022-10-25T23:46:27.410Z,3.40
2022-10-25T23:48:54.038Z,2.78
2022-10-25T23:51:20.705Z,2.50
2022-10-25T23:53:48.676Z,2.30
2022-10-25T23:56:15.531Z,1.75
2022-10-25T23:58:42.313Z,1.65
